sensor_id;sensor_type;location;lat;lon;timestamp;pressure;altitude;pressure_sealevel;temperature;humidity
26043;BME280;13818;52.156;5.382;2022-11-27T00:00:23;102237.28;;;6.54;100.00
26043;BME280;13818;52.156;5.382;2022-11-27T00:02:54;102228.44;;;6.55;100.00
26043;BME280;13818;52.156;5.382;2022-11-27T00:05:25;102217.00;;;6.51;100.00
26043;BME280;13818;52.156;5.382;2022-11-27T00:07:55;102227.59;;;6.51;100.00
26043;BME280;13818;52.156;5.382;2022-11-27T00:10:23;102212.59;;;6.49;100.00
26043;BME280;13818;52.156;5.382;2022-11-27T00:12:54;102210.81;;;6.51;100.00
26043;BME280;13818;52.156;5.382;2022-11-27T00:15:22;102200.22;;;6.48;100.00
26043;BME280;13818;52.156;5.382;2022-11-27T00:17:58;102202.00;;;6.49;100.00
26043;BME280;13818;52.156;5.382;2022-11-27T00:20:26;102197.59;;;6.49;100.00
26043;BME280;13818;52.156;5.382;2022-11-27T00:22:58;102195.84;;;6.47;100.00
26043;BME280;13818;52.156;5.382;2022-11-27T00:25:35;102198.50;;;6.47;100.00
26043;BME280;13818;52.156;5.382;2022-11-27T00:28:04;102190.53;;;6.45;100.00
26043;BME280;13818;52.156;5.382;2022-11-27T00:30:42;102172.91;;;6.43;100.00
26043;BME280;13818;52.156;5.382;2022-11-27T00:33:12;102182.66;;;6.41;100.00
26043;BME280;13818;52.156;5.382;2022-11-27T00:35:50;102173.81;;;6.40;100.00
26043;BME280;13818;52.156;5.382;2022-11-27T00:38:20;102177.34;;;6.38;100.00
26043;BME280;13818;52.156;5.382;2022-11-27T00:41:05;102180.00;;;6.38;100.00
26043;BME280;13818;52.156;5.382;2022-11-27T00:43:45;102188.84;;;6.37;100.00
26043;BME280;13818;52.156;5.382;2022-11-27T00:49:14;102180.97;;;6.27;100.00
26043;BME280;13818;52.156;5.382;2022-11-27T00:51:45;102177.44;;;6.28;100.00
26043;BME280;13818;52.156;5.382;2022-11-27T00:54:17;102176.56;;;6.26;100.00
26043;BME280;13818;52.156;5.382;2022-11-27T00:56:48;102177.47;;;6.24;100.00
26043;BME280;13818;52.156;5.382;2022-11-27T00:59:25;102172.16;;;6.24;100.00
26043;BME280;13818;52.156;5.382;2022-11-27T01:01:52;102170.41;;;6.21;100.00
26043;BME280;13818;52.156;5.382;2022-11-27T01:04:24;102174.81;;;6.22;100.00
26043;BME280;13818;52.156;5.382;2022-11-27T01:06:51;102174.84;;;6.19;100.00
26043;BME280;13818;52.156;5.382;2022-11-27T01:09:30;102166.03;;;6.18;100.00
26043;BME280;13818;52.156;5.382;2022-11-27T01:11:58;102173.97;;;6.17;100.00
26043;BME280;13818;52.156;5.382;2022-11-27T01:14:25;102166.06;;;6.15;100.00
26043;BME280;13818;52.156;5.382;2022-11-27T01:16:58;102166.06;;;6.12;100.00
26043;BME280;13818;52.156;5.382;2022-11-27T01:19:30;102151.06;;;6.11;100.00
26043;BME280;13818;52.156;5.382;2022-11-27T01:22:06;102137.88;;;6.07;100.00
26043;BME280;13818;52.156;5.382;2022-11-27T01:24:35;102130.81;;;6.01;100.00
26043;BME280;13818;52.156;5.382;2022-11-27T01:27:06;102131.72;;;6.03;100.00
26043;BME280;13818;52.156;5.382;2022-11-27T01:29:38;102137.00;;;6.05;100.00
26043;BME280;13818;52.156;5.382;2022-11-27T01:32:10;102144.97;;;6.01;100.00
26043;BME280;13818;52.156;5.382;2022-11-27T01:34:44;102138.75;;;6.02;100.00
26043;BME280;13818;52.156;5.382;2022-11-27T01:37:17;102144.03;;;6.02;100.00
26043;BME280;13818;52.156;5.382;2022-11-27T01:39:44;102131.72;;;6.03;100.00
26043;BME280;13818;52.156;5.382;2022-11-27T01:42:14;102134.34;;;6.05;100.00
26043;BME280;13818;52.156;5.382;2022-11-27T01:44:48;102127.28;;;6.03;100.00
26043;BME280;13818;52.156;5.382;2022-11-27T01:47:42;102116.72;;;6.00;100.00
26043;BME280;13818;52.156;5.382;2022-11-27T01:50:24;102107.88;;;6.00;100.00
26043;BME280;13818;52.156;5.382;2022-11-27T01:53:04;102105.25;;;6.00;100.00
26043;BME280;13818;52.156;5.382;2022-11-27T01:55:39;102094.66;;;6.00;100.00
26043;BME280;13818;52.156;5.382;2022-11-27T01:58:10;102083.19;;;5.98;100.00
26043;BME280;13818;52.156;5.382;2022-11-27T02:00:43;102073.50;;;5.98;100.00
26043;BME280;13818;52.156;5.382;2022-11-27T02:03:16;102072.63;;;5.99;100.00
26043;BME280;13818;52.156;5.382;2022-11-27T02:05:52;102057.63;;;5.98;100.00
26043;BME280;13818;52.156;5.382;2022-11-27T02:08:23;102064.66;;;6.01;100.00
26043;BME280;13818;52.156;5.382;2022-11-27T02:10:53;102060.25;;;6.01;100.00
26043;BME280;13818;52.156;5.382;2022-11-27T02:13:29;102057.63;;;6.01;100.00
26043;BME280;13818;52.156;5.382;2022-11-27T02:16:04;102054.97;;;6.01;100.00
26043;BME280;13818;52.156;5.382;2022-11-27T02:18:42;102039.97;;;6.00;100.00
26043;BME280;13818;52.156;5.382;2022-11-27T02:21:25;102038.16;;;6.02;100.00
26043;BME280;13818;52.156;5.382;2022-11-27T02:27:48;102042.56;;;6.07;100.00
26043;BME280;13818;52.156;5.382;2022-11-27T02:30:30;102038.16;;;6.06;100.00
26043;BME280;13818;52.156;5.382;2022-11-27T02:33:02;102039.94;;;6.02;100.00
26043;BME280;13818;52.156;5.382;2022-11-27T02:35:48;102036.41;;;6.05;100.00
26043;BME280;13818;52.156;5.382;2022-11-27T02:38:28;102047.91;;;6.00;100.00
26043;BME280;13818;52.156;5.382;2022-11-27T02:41:19;102052.31;;;6.03;100.00
26043;BME280;13818;52.156;5.382;2022-11-27T02:43:52;102055.81;;;6.03;100.00
26043;BME280;13818;52.156;5.382;2022-11-27T02:46:32;102038.16;;;6.02;100.00
26043;BME280;13818;52.156;5.382;2022-11-27T02:49:07;102042.56;;;6.05;100.00
26043;BME280;13818;52.156;5.382;2022-11-27T02:51:39;102039.06;;;6.03;100.00
26043;BME280;13818;52.156;5.382;2022-11-27T02:54:18;102038.16;;;6.06;100.00
26043;BME280;13818;52.156;5.382;2022-11-27T02:56:55;102025.78;;;6.06;100.00
26043;BME280;13818;52.156;5.382;2022-11-27T02:59:50;102031.97;;;6.05;100.00
26043;BME280;13818;52.156;5.382;2022-11-27T03:02:33;102032.88;;;6.04;100.00
26043;BME280;13818;52.156;5.382;2022-11-27T03:05:10;102030.22;;;6.06;100.00
26043;BME280;13818;52.156;5.382;2022-11-27T03:07:47;102030.25;;;6.04;100.00
26043;BME280;13818;52.156;5.382;2022-11-27T03:10:30;102020.53;;;6.05;100.00
26043;BME280;13818;52.156;5.382;2022-11-27T03:13:03;102021.41;;;6.02;100.00
26043;BME280;13818;52.156;5.382;2022-11-27T03:15:39;102024.94;;;6.04;100.00
26043;BME280;13818;52.156;5.382;2022-11-27T03:18:22;102026.69;;;6.03;100.00
26043;BME280;13818;52.156;5.382;2022-11-27T03:21:01;102027.63;;;5.99;100.00
26043;BME280;13818;52.156;5.382;2022-11-27T03:23:37;102026.72;;;6.00;100.00
26043;BME280;13818;52.156;5.382;2022-11-27T03:29:10;102031.16;;;6.01;100.00
26043;BME280;13818;52.156;5.382;2022-11-27T03:31:42;102028.47;;;6.03;100.00
26043;BME280;13818;52.156;5.382;2022-11-27T03:34:14;102019.66;;;6.04;100.00
26043;BME280;13818;52.156;5.382;2022-11-27T03:36:42;102027.59;;;6.01;100.00
26043;BME280;13818;52.156;5.382;2022-11-27T03:39:19;102017.03;;;5.99;100.00
26043;BME280;13818;52.156;5.382;2022-11-27T03:42:01;102018.78;;;6.00;100.00
26043;BME280;13818;52.156;5.382;2022-11-27T03:44:40;102005.59;;;5.99;100.00
26043;BME280;13818;52.156;5.382;2022-11-27T03:47:18;102006.44;;;5.99;100.00
26043;BME280;13818;52.156;5.382;2022-11-27T03:50:04;101998.50;;;5.96;100.00
26043;BME280;13818;52.156;5.382;2022-11-27T03:52:53;101995.88;;;5.96;100.00
26043;BME280;13818;52.156;5.382;2022-11-27T03:55:34;101996.75;;;5.95;100.00
26043;BME280;13818;52.156;5.382;2022-11-27T03:58:10;101990.59;;;5.93;100.00
26043;BME280;13818;52.156;5.382;2022-11-27T04:00:46;101993.28;;;5.87;100.00
26043;BME280;13818;52.156;5.382;2022-11-27T04:03:24;101989.75;;;5.88;100.00
26043;BME280;13818;52.156;5.382;2022-11-27T04:05:58;101985.34;;;5.87;100.00
26043;BME280;13818;52.156;5.382;2022-11-27T04:08:33;101974.75;;;5.87;100.00
26043;BME280;13818;52.156;5.382;2022-11-27T04:11:10;101996.81;;;5.88;100.00
26043;BME280;13818;52.156;5.382;2022-11-27T04:13:38;102007.38;;;5.89;100.00
26043;BME280;13818;52.156;5.382;2022-11-27T04:16:08;102002.97;;;5.90;100.00
26043;BME280;13818;52.156;5.382;2022-11-27T04:18:39;101994.16;;;5.88;100.00
26043;BME280;13818;52.156;5.382;2022-11-27T04:21:08;101995.03;;;5.90;100.00
26043;BME280;13818;52.156;5.382;2022-11-27T04:23:41;102005.66;;;5.86;100.00
26043;BME280;13818;52.156;5.382;2022-11-27T04:26:09;102004.75;;;5.86;100.00
26043;BME280;13818;52.156;5.382;2022-11-27T04:28:43;102002.09;;;5.86;100.00
26043;BME280;13818;52.156;5.382;2022-11-27T04:31:21;101999.47;;;5.84;100.00
26043;BME280;13818;52.156;5.382;2022-11-27T04:34:01;102006.50;;;5.87;100.00
26043;BME280;13818;52.156;5.382;2022-11-27T04:36:39;101999.50;;;5.83;100.00
26043;BME280;13818;52.156;5.382;2022-11-27T04:39:09;101980.06;;;5.82;100.00
26043;BME280;13818;52.156;5.382;2022-11-27T04:41:41;101980.09;;;5.84;100.00
26043;BME280;13818;52.156;5.382;2022-11-27T04:44:12;101975.69;;;5.83;100.00
26043;BME280;13818;52.156;5.382;2022-11-27T04:46:39;101970.38;;;5.83;100.00
26043;BME280;13818;52.156;5.382;2022-11-27T04:49:10;101972.16;;;5.84;100.00
26043;BME280;13818;52.156;5.382;2022-11-27T04:51:48;101970.41;;;5.81;100.00
26043;BME280;13818;52.156;5.382;2022-11-27T04:54:16;101965.13;;;5.78;100.00
26043;BME280;13818;52.156;5.382;2022-11-27T04:56:47;101964.22;;;5.81;100.00
26043;BME280;13818;52.156;5.382;2022-11-27T04:59:16;101958.03;;;5.82;100.00
26043;BME280;13818;52.156;5.382;2022-11-27T05:01:46;101958.03;;;5.83;100.00
26043;BME280;13818;52.156;5.382;2022-11-27T05:04:14;101953.63;;;5.82;100.00
26043;BME280;13818;52.156;5.382;2022-11-27T05:06:44;101950.16;;;5.79;100.00
26043;BME280;13818;52.156;5.382;2022-11-27T05:09:15;101943.09;;;5.78;100.00
26043;BME280;13818;52.156;5.382;2022-11-27T05:11:43;101952.75;;;5.82;100.00
26043;BME280;13818;52.156;5.382;2022-11-27T05:14:22;101940.38;;;5.82;100.00
26043;BME280;13818;52.156;5.382;2022-11-27T05:16:59;101936.84;;;5.83;100.00
26043;BME280;13818;52.156;5.382;2022-11-27T05:19:37;101933.31;;;5.84;100.00
26043;BME280;13818;52.156;5.382;2022-11-27T05:22:06;101929.81;;;5.84;100.00
26043;BME280;13818;52.156;5.382;2022-11-27T05:24:38;101927.13;;;5.87;100.00
26043;BME280;13818;52.156;5.382;2022-11-27T05:27:13;101915.66;;;5.86;100.00
26043;BME280;13818;52.156;5.382;2022-11-27T05:29:43;101907.75;;;5.85;100.00
26043;BME280;13818;52.156;5.382;2022-11-27T05:32:10;101917.41;;;5.89;100.00
26043;BME280;13818;52.156;5.382;2022-11-27T05:34:44;101920.03;;;5.91;100.00
26043;BME280;13818;52.156;5.382;2022-11-27T05:37:19;101918.28;;;5.90;100.00
26043;BME280;13818;52.156;5.382;2022-11-27T05:39:50;101912.97;;;5.91;100.00
26043;BME280;13818;52.156;5.382;2022-11-27T05:42:20;101918.25;;;5.93;100.00
26043;BME280;13818;52.156;5.382;2022-11-27T05:44:50;101911.19;;;5.96;100.00
26043;BME280;13818;52.156;5.382;2022-11-27T05:47:19;101919.97;;;6.00;100.00
26043;BME280;13818;52.156;5.382;2022-11-27T05:49:56;101902.34;;;6.00;100.00
26043;BME280;13818;52.156;5.382;2022-11-27T05:52:41;101912.88;;;6.03;100.00
26043;BME280;13818;52.156;5.382;2022-11-27T05:55:12;101898.81;;;5.98;100.00
26043;BME280;13818;52.156;5.382;2022-11-27T05:57:39;101907.63;;;6.00;100.00
26043;BME280;13818;52.156;5.382;2022-11-27T06:00:10;101903.19;;;6.02;100.00
26043;BME280;13818;52.156;5.382;2022-11-27T06:02:40;101902.25;;;6.05;100.00
26043;BME280;13818;52.156;5.382;2022-11-27T06:05:10;101901.41;;;6.05;100.00
26043;BME280;13818;52.156;5.382;2022-11-27T06:07:44;101906.75;;;6.01;100.00
26043;BME280;13818;52.156;5.382;2022-11-27T06:10:22;101904.13;;;5.98;100.00
26043;BME280;13818;52.156;5.382;2022-11-27T06:12:49;101898.84;;;5.95;100.00
26043;BME280;13818;52.156;5.382;2022-11-27T06:15:20;101896.19;;;5.95;100.00
26043;BME280;13818;52.156;5.382;2022-11-27T06:17:52;101897.94;;;5.96;100.00
26043;BME280;13818;52.156;5.382;2022-11-27T06:20:25;101905.88;;;5.98;100.00
26043;BME280;13818;52.156;5.382;2022-11-27T06:22:54;101889.97;;;5.98;100.00
26043;BME280;13818;52.156;5.382;2022-11-27T06:25:29;101904.13;;;5.94;100.00
26043;BME280;13818;52.156;5.382;2022-11-27T06:28:01;101890.94;;;5.91;100.00
26043;BME280;13818;52.156;5.382;2022-11-27T06:30:31;101885.59;;;5.92;100.00
26043;BME280;13818;52.156;5.382;2022-11-27T06:33:14;101883.03;;;5.86;100.00
26043;BME280;13818;52.156;5.382;2022-11-27T06:35:52;101887.38;;;5.93;100.00
26043;BME280;13818;52.156;5.382;2022-11-27T06:38:25;101880.38;;;5.89;100.00
26043;BME280;13818;52.156;5.382;2022-11-27T06:41:00;101879.47;;;5.89;100.00
26043;BME280;13818;52.156;5.382;2022-11-27T06:43:34;101876.84;;;5.90;100.00
26043;BME280;13818;52.156;5.382;2022-11-27T06:46:06;101869.72;;;5.92;100.00
26043;BME280;13818;52.156;5.382;2022-11-27T06:48:35;101876.84;;;5.90;100.00
26043;BME280;13818;52.156;5.382;2022-11-27T06:51:21;101876.78;;;5.93;100.00
26043;BME280;13818;52.156;5.382;2022-11-27T06:54:01;101875.00;;;5.94;100.00
26043;BME280;13818;52.156;5.382;2022-11-27T06:56:34;101872.38;;;5.95;100.00
26043;BME280;13818;52.156;5.382;2022-11-27T06:59:10;101875.00;;;5.95;100.00
26043;BME280;13818;52.156;5.382;2022-11-27T07:01:53;101873.25;;;5.94;100.00
26043;BME280;13818;52.156;5.382;2022-11-27T07:04:27;101873.19;;;5.97;100.00
26043;BME280;13818;52.156;5.382;2022-11-27T07:06:57;101856.47;;;5.95;100.00
26043;BME280;13818;52.156;5.382;2022-11-27T07:09:32;101854.75;;;5.91;100.00
26043;BME280;13818;52.156;5.382;2022-11-27T07:12:08;101845.91;;;5.92;100.00
26043;BME280;13818;52.156;5.382;2022-11-27T07:14:40;101849.44;;;5.91;100.00
26043;BME280;13818;52.156;5.382;2022-11-27T07:17:10;101845.97;;;5.89;100.00
26043;BME280;13818;52.156;5.382;2022-11-27T07:19:40;101834.47;;;5.89;100.00
26043;BME280;13818;52.156;5.382;2022-11-27T07:22:10;101836.31;;;5.85;100.00
26043;BME280;13818;52.156;5.382;2022-11-27T07:24:42;101836.31;;;5.85;100.00
26043;BME280;13818;52.156;5.382;2022-11-27T07:27:14;101826.59;;;5.85;100.00
26043;BME280;13818;52.156;5.382;2022-11-27T07:29:43;101828.34;;;5.86;100.00
26043;BME280;13818;52.156;5.382;2022-11-27T07:32:21;101807.22;;;5.85;100.00
26043;BME280;13818;52.156;5.382;2022-11-27T07:34:51;101815.13;;;5.83;100.00
26043;BME280;13818;52.156;5.382;2022-11-27T07:37:23;101811.59;;;5.84;100.00
26043;BME280;13818;52.156;5.382;2022-11-27T07:40:00;101814.25;;;5.84;100.00
26043;BME280;13818;52.156;5.382;2022-11-27T07:42:39;101801.88;;;5.86;100.00
26043;BME280;13818;52.156;5.382;2022-11-27T07:45:12;101809.84;;;5.83;100.00
26043;BME280;13818;52.156;5.382;2022-11-27T07:47:42;101807.22;;;5.85;100.00
26043;BME280;13818;52.156;5.382;2022-11-27T07:50:18;101808.94;;;5.86;100.00
26043;BME280;13818;52.156;5.382;2022-11-27T07:52:59;101801.91;;;5.85;100.00
26043;BME280;13818;52.156;5.382;2022-11-27T07:55:26;101811.59;;;5.84;100.00
26043;BME280;13818;52.156;5.382;2022-11-27T07:58:00;101808.94;;;5.86;100.00
26043;BME280;13818;52.156;5.382;2022-11-27T08:00:31;101819.44;;;5.95;100.00
26043;BME280;13818;52.156;5.382;2022-11-27T08:03:00;101810.59;;;5.98;100.00
26043;BME280;13818;52.156;5.382;2022-11-27T08:05:32;101809.75;;;5.93;100.00
26043;BME280;13818;52.156;5.382;2022-11-27T08:08:05;101803.56;;;5.95;100.00
26043;BME280;13818;52.156;5.382;2022-11-27T08:10:34;101805.38;;;5.90;100.00
26043;BME280;13818;52.156;5.382;2022-11-27T08:13:03;101793.00;;;5.91;100.00
26043;BME280;13818;52.156;5.382;2022-11-27T08:15:31;101793.88;;;5.93;100.00
26043;BME280;13818;52.156;5.382;2022-11-27T08:18:00;101789.50;;;5.89;100.00
26043;BME280;13818;52.156;5.382;2022-11-27T08:20:31;101790.38;;;5.91;100.00
26043;BME280;13818;52.156;5.382;2022-11-27T08:22:58;101792.97;;;5.94;100.00
26043;BME280;13818;52.156;5.382;2022-11-27T08:25:36;101789.44;;;5.96;100.00
26043;BME280;13818;52.156;5.382;2022-11-27T08:28:05;101785.91;;;5.99;100.00
26043;BME280;13818;52.156;5.382;2022-11-27T08:30:38;101794.72;;;5.99;100.00
26043;BME280;13818;52.156;5.382;2022-11-27T08:33:05;101792.94;;;5.98;100.00
26043;BME280;13818;52.156;5.382;2022-11-27T08:35:33;101784.97;;;6.03;100.00
26043;BME280;13818;52.156;5.382;2022-11-27T08:38:01;101792.03;;;6.04;100.00
26043;BME280;13818;52.156;5.382;2022-11-27T08:40:34;101798.16;;;6.06;100.00
26043;BME280;13818;52.156;5.382;2022-11-27T08:43:02;101789.34;;;6.06;100.00
26043;BME280;13818;52.156;5.382;2022-11-27T08:45:33;101789.28;;;6.12;100.00
26043;BME280;13818;52.156;5.382;2022-11-27T08:48:03;101794.59;;;6.10;100.00
26043;BME280;13818;52.156;5.382;2022-11-27T08:50:31;101785.72;;;6.14;100.00
26043;BME280;13818;52.156;5.382;2022-11-27T08:53:02;101785.66;;;6.17;100.00
26043;BME280;13818;52.156;5.382;2022-11-27T08:55:29;101783.94;;;6.15;100.00
26043;BME280;13818;52.156;5.382;2022-11-27T08:57:58;101784.81;;;6.15;100.00
26043;BME280;13818;52.156;5.382;2022-11-27T09:00:34;101788.28;;;6.21;100.00
26043;BME280;13818;52.156;5.382;2022-11-27T09:03:02;101791.78;;;6.21;100.00
26043;BME280;13818;52.156;5.382;2022-11-27T09:05:30;101789.06;;;6.27;100.00
26043;BME280;13818;52.156;5.382;2022-11-27T09:08:01;101789.09;;;6.26;100.00
26043;BME280;13818;52.156;5.382;2022-11-27T09:10:30;101797.00;;;6.27;100.00
26043;BME280;13818;52.156;5.382;2022-11-27T09:13:00;101786.44;;;6.26;100.00
26043;BME280;13818;52.156;5.382;2022-11-27T09:15:27;101794.38;;;6.27;100.00
26043;BME280;13818;52.156;5.382;2022-11-27T09:17:58;101791.69;;;6.30;100.00
26043;BME280;13818;52.156;5.382;2022-11-27T09:20:27;101783.72;;;6.32;100.00
26043;BME280;13818;52.156;5.382;2022-11-27T09:22:57;101782.81;;;6.31;100.00
26043;BME280;13818;52.156;5.382;2022-11-27T09:25:25;101780.94;;;6.41;100.00
26043;BME280;13818;52.156;5.382;2022-11-27T09:27:54;101779.19;;;6.42;100.00
26043;BME280;13818;52.156;5.382;2022-11-27T09:30:28;101783.53;;;6.46;100.00
26043;BME280;13818;52.156;5.382;2022-11-27T09:33:01;101783.53;;;6.46;100.00
26043;BME280;13818;52.156;5.382;2022-11-27T09:35:32;101779.13;;;6.45;100.00
26043;BME280;13818;52.156;5.382;2022-11-27T09:38:02;101773.78;;;6.49;100.00
26043;BME280;13818;52.156;5.382;2022-11-27T09:40:30;101779.06;;;6.49;100.00
26043;BME280;13818;52.156;5.382;2022-11-27T09:43:04;101771.97;;;6.51;100.00
26043;BME280;13818;52.156;5.382;2022-11-27T09:45:42;101771.06;;;6.53;100.00
26043;BME280;13818;52.156;5.382;2022-11-27T09:48:20;101763.09;;;6.56;100.00
26043;BME280;13818;52.156;5.382;2022-11-27T09:50:55;101755.97;;;6.58;100.00
26043;BME280;13818;52.156;5.382;2022-11-27T09:53:28;101760.34;;;6.60;100.00
26043;BME280;13818;52.156;5.382;2022-11-27T09:56:03;101756.78;;;6.63;100.00
26043;BME280;13818;52.156;5.382;2022-11-27T09:58:36;101745.28;;;6.67;100.00
26043;BME280;13818;52.156;5.382;2022-11-27T10:01:11;101746.94;;;6.73;100.00
26043;BME280;13818;52.156;5.382;2022-11-27T10:03:46;101740.75;;;6.74;100.00
26043;BME280;13818;52.156;5.382;2022-11-27T10:06:20;101738.06;;;6.75;100.00
26043;BME280;13818;52.156;5.382;2022-11-27T10:09:09;101740.66;;;6.77;100.00
26043;BME280;13818;52.156;5.382;2022-11-27T10:11:47;101741.53;;;6.79;100.00
26043;BME280;13818;52.156;5.382;2022-11-27T10:14:32;101732.72;;;6.78;100.00
26043;BME280;13818;52.156;5.382;2022-11-27T10:17:09;101723.81;;;6.82;100.00
26043;BME280;13818;52.156;5.382;2022-11-27T10:19:49;101725.50;;;6.87;100.00
26043;BME280;13818;52.156;5.382;2022-11-27T10:22:29;101732.50;;;6.91;100.00
26043;BME280;13818;52.156;5.382;2022-11-27T10:25:16;101720.09;;;6.93;100.00
26043;BME280;13818;52.156;5.382;2022-11-27T10:28:01;101715.63;;;6.96;100.00
26043;BME280;13818;52.156;5.382;2022-11-27T10:30:35;101715.53;;;7.03;100.00
26043;BME280;13818;52.156;5.382;2022-11-27T10:33:16;101721.66;;;7.05;100.00
26043;BME280;13818;52.156;5.382;2022-11-27T10:35:47;101717.13;;;7.13;100.00
26043;BME280;13818;52.156;5.382;2022-11-27T10:38:17;101709.25;;;7.07;100.00
26043;BME280;13818;52.156;5.382;2022-11-27T10:40:58;101715.31;;;7.13;100.00
26043;BME280;13818;52.156;5.382;2022-11-27T10:43:30;101712.41;;;7.27;100.00
26043;BME280;13818;52.156;5.382;2022-11-27T10:46:02;101706.31;;;7.24;100.00
26043;BME280;13818;52.156;5.382;2022-11-27T10:48:33;101707.06;;;7.30;100.00
26043;BME280;13818;52.156;5.382;2022-11-27T10:51:11;101694.75;;;7.28;100.00
26043;BME280;13818;52.156;5.382;2022-11-27T10:53:51;101687.72;;;7.25;100.00
26043;BME280;13818;52.156;5.382;2022-11-27T10:56:48;101685.91;;;7.27;100.00
26043;BME280;13818;52.156;5.382;2022-11-27T10:59:25;101683.22;;;7.30;100.00
26043;BME280;13818;52.156;5.382;2022-11-27T11:01:56;101675.25;;;7.30;100.00
26043;BME280;13818;52.156;5.382;2022-11-27T11:04:31;101670.84;;;7.29;100.00
26043;BME280;13818;52.156;5.382;2022-11-27T11:07:01;101671.47;;;7.44;100.00
26043;BME280;13818;52.156;5.382;2022-11-27T11:09:35;101667.69;;;7.56;100.00
26043;BME280;13818;52.156;5.382;2022-11-27T11:12:12;101660.53;;;7.59;100.00
26043;BME280;13818;52.156;5.382;2022-11-27T11:14:52;101655.38;;;7.52;100.00
26043;BME280;13818;52.156;5.382;2022-11-27T11:17:27;101656.22;;;7.55;100.00
26043;BME280;13818;52.156;5.382;2022-11-27T11:19:54;101648.34;;;7.51;100.00
26043;BME280;13818;52.156;5.382;2022-11-27T11:22:23;101657.06;;;7.56;100.00
26043;BME280;13818;52.156;5.382;2022-11-27T11:24:51;101649.06;;;7.57;100.00
26043;BME280;13818;52.156;5.382;2022-11-27T11:27:26;101639.09;;;7.69;100.00
26043;BME280;13818;52.156;5.382;2022-11-27T11:30:00;101630.75;;;7.87;100.00
26043;BME280;13818;52.156;5.382;2022-11-27T11:32:29;101619.28;;;7.85;100.00
26043;BME280;13818;52.156;5.382;2022-11-27T11:35:02;101610.28;;;7.92;100.00
26043;BME280;13818;52.156;5.382;2022-11-27T11:37:35;101618.31;;;7.89;100.00
26043;BME280;13818;52.156;5.382;2022-11-27T11:40:06;101611.13;;;7.94;100.00
26043;BME280;13818;52.156;5.382;2022-11-27T11:42:51;101605.81;;;7.94;100.00
26043;BME280;13818;52.156;5.382;2022-11-27T11:45:22;101597.81;;;7.96;100.00
26043;BME280;13818;52.156;5.382;2022-11-27T11:48:00;101588.09;;;7.95;100.00
26043;BME280;13818;52.156;5.382;2022-11-27T11:50:35;101595.97;;;8.00;100.00
26043;BME280;13818;52.156;5.382;2022-11-27T11:53:12;101591.59;;;7.97;100.00
26043;BME280;13818;52.156;5.382;2022-11-27T11:56:00;101589.56;;;8.07;100.00
26043;BME280;13818;52.156;5.382;2022-11-27T11:58:43;101581.81;;;7.99;100.00
26043;BME280;13818;52.156;5.382;2022-11-27T12:01:25;101574.03;;;7.91;100.00
26043;BME280;13818;52.156;5.382;2022-11-27T12:04:05;101585.41;;;7.96;100.00
26043;BME280;13818;52.156;5.382;2022-11-27T12:06:44;101575.81;;;7.91;100.00
26043;BME280;13818;52.156;5.382;2022-11-27T12:09:29;101573.06;;;7.94;100.00
26043;BME280;13818;52.156;5.382;2022-11-27T12:12:17;101558.91;;;7.95;100.00
26043;BME280;13818;52.156;5.382;2022-11-27T12:14:55;101554.28;;;8.03;100.00
26043;BME280;13818;52.156;5.382;2022-11-27T12:17:45;101554.91;;;8.13;100.00
26043;BME280;13818;52.156;5.382;2022-11-27T12:20:20;101549.75;;;8.07;100.00
26043;BME280;13818;52.156;5.382;2022-11-27T12:26:09;101526.69;;;8.09;100.00
26043;BME280;13818;52.156;5.382;2022-11-27T12:29:06;101522.88;;;8.21;100.00
26043;BME280;13818;52.156;5.382;2022-11-27T12:34:42;101507.81;;;8.21;100.00
26043;BME280;13818;52.156;5.382;2022-11-27T12:37:33;101513.22;;;8.17;100.00
26043;BME280;13818;52.156;5.382;2022-11-27T12:40:25;101518.59;;;8.15;100.00
26043;BME280;13818;52.156;5.382;2022-11-27T12:43:02;101514.06;;;8.19;100.00
26043;BME280;13818;52.156;5.382;2022-11-27T12:45:41;101516.69;;;8.20;100.00
26043;BME280;13818;52.156;5.382;2022-11-27T12:48:14;101512.31;;;8.18;100.00
26043;BME280;13818;52.156;5.382;2022-11-27T12:50:50;101494.84;;;8.09;100.00
26043;BME280;13818;52.156;5.382;2022-11-27T12:53:28;101493.88;;;8.11;100.00
26043;BME280;13818;52.156;5.382;2022-11-27T12:56:14;101491.16;;;8.14;100.00
26043;BME280;13818;52.156;5.382;2022-11-27T12:58:57;101488.63;;;8.10;100.00
26043;BME280;13818;52.156;5.382;2022-11-27T13:01:37;101472.53;;;8.16;100.00
26043;BME280;13818;52.156;5.382;2022-11-27T13:04:17;101488.22;;;8.25;100.00
26043;BME280;13818;52.156;5.382;2022-11-27T13:06:51;101481.19;;;8.23;100.00
26043;BME280;13818;52.156;5.382;2022-11-27T13:09:36;101482.94;;;8.24;100.00
26043;BME280;13818;52.156;5.382;2022-11-27T13:12:12;101471.59;;;8.19;100.00
26043;BME280;13818;52.156;5.382;2022-11-27T13:14:49;101474.28;;;8.15;100.00
26043;BME280;13818;52.156;5.382;2022-11-27T13:17:17;101472.44;;;8.19;100.00
26043;BME280;13818;52.156;5.382;2022-11-27T13:19:57;101458.66;;;8.05;100.00
26043;BME280;13818;52.156;5.382;2022-11-27T13:22:31;101464.84;;;8.05;100.00
26043;BME280;13818;52.156;5.382;2022-11-27T13:25:09;101458.81;;;7.98;100.00
26043;BME280;13818;52.156;5.382;2022-11-27T13:27:40;101466.78;;;7.98;100.00
26043;BME280;13818;52.156;5.382;2022-11-27T13:30:19;101458.97;;;7.92;100.00
26043;BME280;13818;52.156;5.382;2022-11-27T13:32:51;101455.63;;;7.84;100.00
26043;BME280;13818;52.156;5.382;2022-11-27T13:35:23;101448.59;;;7.81;100.00
26043;BME280;13818;52.156;5.382;2022-11-27T13:38:07;101453.81;;;7.86;100.00
26043;BME280;13818;52.156;5.382;2022-11-27T13:40:37;101456.50;;;7.85;100.00
26043;BME280;13818;52.156;5.382;2022-11-27T13:43:23;101441.50;;;7.84;100.00